Time;durP1;ratioP1;P1;durP2;ratioP2;P2;SDS_P1;SDS_P2;PMS_P1;PMS_P2;Temp;Humidity;BMP_temperature;BMP_pressure;BME280_temperature;BME280_humidity;BME280_pressure;Samples;Min_cycle;Max_cycle;Signal;HPM_P1;HPM_P2
2023/08/27 00:00:18;;;;;;;11.20;5.75;;;;;;;14.89;100.00;96866.28;4975006;28;20172;-63
2023/08/27 00:02:45;;;;;;;12.40;6.65;;;;;;;14.97;100.00;96898.34;5018936;28;20704;-63
2023/08/27 00:05:12;;;;;;;8.82;5.95;;;;;;;14.93;100.00;96868.13;4967895;28;20047;-63
2023/08/27 00:07:38;;;;;;;13.02;7.80;;;;;;;14.92;100.00;96862.97;4977060;28;20047;-63
2023/08/27 00:10:06;;;;;;;9.25;6.55;;;;;;;14.82;100.00;96855.75;4981953;28;20065;-63
2023/08/27 00:12:32;;;;;;;10.85;5.97;;;;;;;14.79;100.00;96848.97;4980083;28;20042;-63
2023/08/27 00:14:59;;;;;;;12.15;6.75;;;;;;;14.85;100.00;96846.97;5000056;28;20542;-63
2023/08/27 00:17:26;;;;;;;13.20;7.28;;;;;;;14.91;100.00;96834.91;4969245;28;20050;-63
2023/08/27 00:19:52;;;;;;;11.75;6.90;;;;;;;14.96;100.00;96836.75;4989263;28;20051;-63
2023/08/27 00:22:19;;;;;;;17.27;7.78;;;;;;;14.95;100.00;96844.13;4975250;28;20509;-63
2023/08/27 00:24:46;;;;;;;10.55;6.18;;;;;;;14.99;100.00;96851.69;4973285;28;20042;-63
2023/08/27 00:27:13;;;;;;;14.23;7.20;;;;;;;14.84;100.00;96864.44;4990574;28;20048;-63
2023/08/27 00:29:40;;;;;;;13.45;8.02;;;;;;;14.83;100.00;96900.97;4990061;28;20042;-63
2023/08/27 00:32:06;;;;;;;14.93;7.78;;;;;;;14.79;100.00;96899.94;4997520;28;20154;-63
2023/08/27 00:34:51;;;;;;;12.63;7.85;;;;;;;14.84;100.00;96910.78;4998836;28;20088;-63
2023/08/27 00:37:17;;;;;;;9.55;7.28;;;;;;;14.89;100.00;96946.13;4975416;28;20054;-63
2023/08/27 00:39:44;;;;;;;10.40;8.38;;;;;;;14.99;100.00;96947.94;4995859;28;20039;-63
2023/08/27 00:42:12;;;;;;;13.60;9.27;;;;;;;15.17;100.00;96942.81;4974331;28;20043;-63
2023/08/27 00:44:38;;;;;;;15.98;8.05;;;;;;;15.27;100.00;96920.88;4998365;28;20113;-63
2023/08/27 00:47:05;;;;;;;15.20;8.05;;;;;;;15.31;100.00;96915.63;4970046;28;20117;-63
2023/08/27 00:49:32;;;;;;;13.50;8.15;;;;;;;15.30;100.00;96898.44;5019061;28;20041;-63
2023/08/27 00:51:59;;;;;;;12.75;8.80;;;;;;;15.30;100.00;96900.38;4970429;28;20081;-63
2023/08/27 00:54:26;;;;;;;12.20;8.77;;;;;;;15.32;100.00;96909.06;4967148;28;20042;-63
2023/08/27 00:56:53;;;;;;;12.57;8.38;;;;;;;15.38;100.00;96909.81;4972420;28;20054;-63
2023/08/27 00:59:20;;;;;;;12.20;8.40;;;;;;;15.35;100.00;96889.38;5012402;28;20035;-63
2023/08/27 01:01:47;;;;;;;13.68;9.38;;;;;;;15.31;100.00;96900.09;4990528;28;20047;-63
2023/08/27 01:04:14;;;;;;;13.55;8.27;;;;;;;15.31;100.00;96891.06;4975057;28;20056;-63
2023/08/27 01:06:41;;;;;;;12.90;7.55;;;;;;;15.37;100.00;96884.44;4976627;28;20488;-63
2023/08/27 01:09:25;;;;;;;12.65;7.18;;;;;;;15.48;100.00;96866.00;4997156;28;20053;-63
2023/08/27 01:12:13;;;;;;;15.90;7.57;;;;;;;15.46;100.00;96847.22;5016326;28;20765;-63
2023/08/27 01:14:42;;;;;;;11.48;6.68;;;;;;;15.52;100.00;96844.41;4998507;28;20437;-63
2023/08/27 01:17:11;;;;;;;8.98;6.32;;;;;;;15.57;100.00;96845.13;4970381;28;20066;-63
2023/08/27 01:19:39;;;;;;;9.75;5.18;;;;;;;15.65;100.00;96848.28;5002806;28;20083;-63
2023/08/27 01:22:05;;;;;;;9.45;6.18;;;;;;;15.67;100.00;96846.84;4987915;28;20577;-63
2023/08/27 01:24:32;;;;;;;11.00;5.55;;;;;;;15.66;100.00;96853.44;4952976;28;20065;-63
2023/08/27 01:27:05;;;;;;;9.23;5.50;;;;;;;15.66;100.00;96861.63;4995327;28;20041;-63
2023/08/27 01:29:39;;;;;;;11.05;6.10;;;;;;;15.61;100.00;96864.44;4988317;28;20036;-63
2023/08/27 01:32:06;;;;;;;9.50;6.25;;;;;;;15.66;100.00;96847.19;5023273;28;20072;-63
2023/08/27 01:34:33;;;;;;;12.18;6.55;;;;;;;15.69;100.00;96850.13;4970891;28;20072;-61
2023/08/27 01:37:00;;;;;;;10.77;6.10;;;;;;;15.70;100.00;96840.81;5010103;28;20051;-63
2023/08/27 01:39:27;;;;;;;9.70;6.13;;;;;;;15.74;100.00;96824.66;4978721;28;20035;-63
2023/08/27 01:41:53;;;;;;;7.40;4.57;;;;;;;15.78;100.00;96814.78;4993326;28;20518;-63
2023/08/27 01:44:20;;;;;;;13.15;5.35;;;;;;;15.67;100.00;96818.78;4972363;28;20099;-63
2023/08/27 01:46:46;;;;;;;12.48;5.38;;;;;;;15.69;100.00;96822.81;5004663;28;20040;-63
2023/08/27 01:49:13;;;;;;;10.13;5.13;;;;;;;15.73;100.00;96807.47;4996018;28;20776;-63
2023/08/27 01:51:40;;;;;;;7.72;5.20;;;;;;;15.75;100.00;96799.00;4985935;28;20073;-63
2023/08/27 01:54:06;;;;;;;10.23;6.28;;;;;;;15.78;100.00;96820.22;4982519;28;20042;-63
2023/08/27 01:56:33;;;;;;;9.15;4.68;;;;;;;15.86;100.00;96829.66;4983042;28;20041;-63
2023/08/27 01:59:00;;;;;;;7.20;4.18;;;;;;;15.85;100.00;96812.44;4999848;28;20057;-63
2023/08/27 02:01:26;;;;;;;9.32;5.35;;;;;;;15.83;100.00;96814.69;4990756;28;20141;-63
2023/08/27 02:03:53;;;;;;;8.70;5.00;;;;;;;15.84;100.00;96815.47;5003117;28;20060;-63
2023/08/27 02:06:20;;;;;;;8.15;5.03;;;;;;;15.79;100.00;96815.56;4971123;28;20051;-63
2023/08/27 02:08:46;;;;;;;8.30;4.90;;;;;;;15.77;100.00;96823.25;4990737;28;20511;-63
2023/08/27 02:11:13;;;;;;;8.10;4.95;;;;;;;15.77;100.00;96837.69;5001411;28;20391;-63
2023/08/27 02:13:39;;;;;;;8.18;5.45;;;;;;;15.70;100.00;96835.34;4979893;28;20054;-63
2023/08/27 02:16:06;;;;;;;7.65;4.85;;;;;;;15.75;100.00;96820.81;4965736;28;20043;-63
2023/08/27 02:18:33;;;;;;;9.77;4.50;;;;;;;15.73;100.00;96784.81;4995853;28;20066;-63
2023/08/27 02:21:01;;;;;;;8.38;5.05;;;;;;;15.80;100.00;96770.78;4989872;28;20051;-63
2023/08/27 02:23:27;;;;;;;9.23;4.50;;;;;;;15.85;100.00;96751.59;4973158;28;20051;-63
2023/08/27 02:25:54;;;;;;;7.18;4.70;;;;;;;15.89;100.00;96749.06;4974925;28;20049;-63
2023/08/27 02:28:21;;;;;;;6.85;4.53;;;;;;;15.79;100.00;96756.34;4982646;28;20125;-63
2023/08/27 02:30:53;;;;;;;7.53;4.28;;;;;;;15.67;100.00;96775.13;4989252;28;20121;-63
2023/08/27 02:33:20;;;;;;;6.80;4.50;;;;;;;15.69;100.00;96797.44;4982499;28;20104;-63
2023/08/27 02:35:47;;;;;;;8.55;4.50;;;;;;;15.66;100.00;96808.97;4997132;28;20505;-63
2023/08/27 02:38:14;;;;;;;10.00;4.15;;;;;;;15.65;100.00;96821.81;5003627;28;20040;-63
2023/08/27 02:40:41;;;;;;;8.43;4.53;;;;;;;15.69;100.00;96841.09;4995051;28;20518;-63
2023/08/27 02:43:07;;;;;;;7.93;4.43;;;;;;;15.70;100.00;96837.28;5021376;28;20036;-63
2023/08/27 02:45:34;;;;;;;6.38;3.90;;;;;;;15.71;100.00;96831.50;4970023;28;20137;-62
2023/08/27 02:48:00;;;;;;;9.73;4.40;;;;;;;15.66;100.00;96804.31;4988301;28;20414;-63
2023/08/27 02:50:27;;;;;;;10.23;4.43;;;;;;;15.69;100.00;96811.91;4999090;28;20133;-63
2023/08/27 02:52:54;;;;;;;10.90;5.30;;;;;;;15.73;100.00;96832.03;4966061;28;20505;-63
2023/08/27 02:55:20;;;;;;;6.30;4.20;;;;;;;15.71;100.00;96815.13;5001322;28;20044;-63
2023/08/27 02:57:47;;;;;;;7.07;4.00;;;;;;;15.70;100.00;96829.91;4971216;28;20085;-63
2023/08/27 03:00:14;;;;;;;8.35;4.47;;;;;;;15.66;100.00;96849.91;4981308;28;20051;-63
2023/08/27 03:02:40;;;;;;;7.18;4.25;;;;;;;15.63;100.00;96851.31;5002699;28;20035;-63
2023/08/27 03:05:07;;;;;;;6.70;4.05;;;;;;;15.66;100.00;96871.75;5002565;28;20047;-63
2023/08/27 03:07:34;;;;;;;10.68;4.63;;;;;;;15.70;100.00;96870.84;4973042;28;20034;-63
2023/08/27 03:10:00;;;;;;;13.48;4.75;;;;;;;15.63;100.00;96861.41;4984059;28;20096;-63
2023/08/27 03:12:27;;;;;;;10.05;4.50;;;;;;;15.57;100.00;96842.41;4992836;28;20050;-63
2023/08/27 03:14:54;;;;;;;8.43;4.57;;;;;;;15.62;100.00;96873.44;4997055;28;20553;-62
2023/08/27 03:17:20;;;;;;;13.63;5.47;;;;;;;15.60;100.00;96857.38;4973905;28;20142;-63
2023/08/27 03:19:47;;;;;;;8.65;4.53;;;;;;;15.45;100.00;96831.13;4995841;28;20045;-63
2023/08/27 03:22:13;;;;;;;8.20;5.65;;;;;;;15.59;100.00;96910.31;4976162;28;20492;-63
2023/08/27 03:24:40;;;;;;;6.93;4.53;;;;;;;15.54;100.00;96883.09;5008111;28;20902;-63
2023/08/27 03:27:07;;;;;;;9.85;4.70;;;;;;;15.47;100.00;96865.19;4986172;28;20055;-62
2023/08/27 03:29:34;;;;;;;12.20;4.75;;;;;;;15.50;100.00;96877.44;5018177;28;20035;-63
2023/08/27 03:32:01;;;;;;;6.72;4.68;;;;;;;15.52;100.00;96885.31;5016633;28;20045;-63
2023/08/27 03:34:30;;;;;;;7.95;4.97;;;;;;;15.51;100.00;96864.59;4977373;28;20635;-63
2023/08/27 03:36:57;;;;;;;6.97;5.00;;;;;;;15.50;100.00;96868.41;4996553;28;20049;-63
2023/08/27 03:39:24;;;;;;;10.70;5.10;;;;;;;15.49;100.00;96875.81;4982739;28;20451;-63
2023/08/27 03:41:50;;;;;;;7.68;5.35;;;;;;;15.45;100.00;96878.31;4969343;28;20050;-63
2023/08/27 03:44:17;;;;;;;12.55;5.70;;;;;;;15.47;100.00;96876.09;4969475;28;20625;-63
2023/08/27 03:46:44;;;;;;;8.45;5.07;;;;;;;15.46;100.00;96844.47;5049091;28;20043;-63
2023/08/27 03:49:10;;;;;;;9.00;4.53;;;;;;;15.50;100.00;96843.88;4988078;28;20138;-63
2023/08/27 03:51:38;;;;;;;8.10;5.30;;;;;;;15.53;100.00;96843.28;4968837;28;20508;-63
2023/08/27 03:54:04;;;;;;;9.23;5.35;;;;;;;15.55;100.00;96839.16;4969297;28;20066;-63
2023/08/27 03:56:31;;;;;;;14.18;5.28;;;;;;;15.56;100.00;96826.31;4953816;28;20325;-63
2023/08/27 03:58:58;;;;;;;8.55;5.18;;;;;;;15.56;100.00;96829.84;4977015;28;20055;-63
2023/08/27 04:01:24;;;;;;;9.85;4.53;;;;;;;15.52;100.00;96817.91;4971858;28;20042;-63
2023/08/27 04:03:53;;;;;;;7.43;4.40;;;;;;;15.43;100.00;96822.41;4998056;28;20440;-62
2023/08/27 04:06:19;;;;;;;8.50;4.78;;;;;;;15.37;100.00;96818.16;4969740;28;20053;-63
2023/08/27 04:08:46;;;;;;;8.88;5.20;;;;;;;15.34;100.00;96827.75;4987444;28;20599;-63
2023/08/27 04:11:12;;;;;;;9.35;5.40;;;;;;;15.32;100.00;96824.50;4975179;28;20053;-63
2023/08/27 04:13:39;;;;;;;6.90;4.72;;;;;;;15.31;100.00;96829.16;4995199;28;20050;-63
2023/08/27 04:16:07;;;;;;;9.00;5.70;;;;;;;15.39;100.00;96851.41;4998473;28;20068;-62
2023/08/27 04:18:34;;;;;;;8.63;5.22;;;;;;;15.42;100.00;96859.81;5022665;28;20049;-62
2023/08/27 04:21:02;;;;;;;11.85;5.20;;;;;;;15.43;100.00;96855.16;4970666;28;20129;-62
2023/08/27 04:23:29;;;;;;;8.23;5.68;;;;;;;15.44;100.00;96852.13;4989182;28;20081;-63
2023/08/27 04:25:56;;;;;;;10.18;5.78;;;;;;;15.52;100.00;96863.50;4977126;28;20046;-63
2023/08/27 04:28:22;;;;;;;10.55;5.95;;;;;;;15.48;100.00;96814.16;5008740;28;20054;-62
2023/08/27 04:30:49;;;;;;;11.40;6.40;;;;;;;15.48;100.00;96814.97;4969678;28;20047;-63
2023/08/27 04:33:17;;;;;;;7.22;5.68;;;;;;;15.52;100.00;96837.00;5021772;28;20086;-63
2023/08/27 04:35:49;;;;;;;10.13;5.55;;;;;;;15.52;100.00;96822.56;4980928;28;20039;-63
2023/08/27 04:38:16;;;;;;;9.23;5.30;;;;;;;15.48;100.00;96804.06;4990629;28;20044;-63
2023/08/27 04:40:43;;;;;;;7.15;5.32;;;;;;;15.51;100.00;96799.13;4969679;28;20610;-63
2023/08/27 04:43:09;;;;;;;10.85;5.57;;;;;;;15.46;100.00;96783.66;4986522;28;20036;-63
2023/08/27 04:45:36;;;;;;;8.65;5.00;;;;;;;15.46;100.00;96794.56;4972150;28;20639;-63
2023/08/27 04:48:03;;;;;;;9.80;5.50;;;;;;;15.44;100.00;96802.25;4983881;28;20059;-63
2023/08/27 04:50:29;;;;;;;9.02;5.32;;;;;;;15.46;100.00;96809.03;4969854;28;20660;-63
2023/08/27 04:52:56;;;;;;;8.68;5.55;;;;;;;15.43;100.00;96812.34;4980376;28;20047;-63
2023/08/27 04:55:23;;;;;;;7.47;5.10;;;;;;;15.46;100.00;96835.47;4970100;28;20057;-63
2023/08/27 04:57:50;;;;;;;7.97;5.22;;;;;;;15.39;100.00;96819.50;4997043;28;20039;-63
2023/08/27 05:00:20;;;;;;;6.35;5.10;;;;;;;15.41;100.00;96824.66;4985783;28;20655;-62
2023/08/27 05:02:47;;;;;;;7.93;4.80;;;;;;;15.40;100.00;96825.78;4961169;28;20637;-63
2023/08/27 05:05:15;;;;;;;8.82;5.65;;;;;;;15.36;100.00;96843.84;5017649;28;20036;-63
2023/08/27 05:07:42;;;;;;;8.15;5.00;;;;;;;15.27;100.00;96871.78;5023398;28;20084;-63
2023/08/27 05:10:09;;;;;;;8.18;5.45;;;;;;;15.20;100.00;96866.69;4979084;28;20573;-62
2023/08/27 05:12:36;;;;;;;11.18;5.90;;;;;;;15.14;100.00;96884.22;4967258;28;20049;-62
2023/08/27 05:15:06;;;;;;;10.63;5.75;;;;;;;15.12;100.00;96902.78;4974359;28;20536;-62
2023/08/27 05:17:33;;;;;;;7.57;5.55;;;;;;;15.19;100.00;96914.13;4998284;28;20566;-63
2023/08/27 05:19:59;;;;;;;10.93;6.20;;;;;;;15.14;100.00;96889.66;5005849;28;20053;-63
2023/08/27 05:22:27;;;;;;;11.00;6.00;;;;;;;15.16;100.00;96908.47;4968477;28;20031;-62
2023/08/27 05:24:54;;;;;;;8.73;5.93;;;;;;;15.06;100.00;96899.31;5006071;28;20041;-63
2023/08/27 05:27:21;;;;;;;10.18;6.57;;;;;;;15.11;100.00;96909.31;4992648;28;20032;-63
2023/08/27 05:29:47;;;;;;;10.82;6.43;;;;;;;15.13;100.00;96907.13;5005835;28;20070;-63
2023/08/27 05:32:14;;;;;;;7.28;5.57;;;;;;;15.12;100.00;96891.88;4972135;28;20052;-63
2023/08/27 05:34:40;;;;;;;9.70;6.10;;;;;;;15.17;100.00;96901.91;4996977;28;20055;-63
2023/08/27 05:37:07;;;;;;;11.65;5.40;;;;;;;15.20;100.00;96904.03;4967164;28;20142;-63
2023/08/27 05:39:34;;;;;;;7.05;5.03;;;;;;;15.21;100.00;96894.75;4984980;28;20042;-63
2023/08/27 05:42:01;;;;;;;10.13;5.32;;;;;;;15.32;100.00;96917.25;4967790;28;20043;-63
2023/08/27 05:44:28;;;;;;;9.95;5.57;;;;;;;15.39;100.00;96911.41;4969397;28;20069;-63
2023/08/27 05:46:55;;;;;;;13.85;5.20;;;;;;;15.37;100.00;96903.53;4960602;28;20043;-62
2023/08/27 05:49:23;;;;;;;9.02;4.85;;;;;;;15.34;100.00;96852.31;5006199;28;20185;-63
2023/08/27 05:51:49;;;;;;;7.60;4.45;;;;;;;15.40;100.00;96861.22;4973370;28;20042;-63
2023/08/27 05:54:16;;;;;;;8.00;4.60;;;;;;;15.39;100.00;96835.84;4975898;28;20168;-62
2023/08/27 05:56:43;;;;;;;6.72;3.90;;;;;;;15.33;100.00;96793.38;4962737;28;20046;-62
2023/08/27 05:59:13;;;;;;;6.75;4.03;;;;;;;15.40;100.00;96795.75;4997939;28;20141;-62
2023/08/27 06:01:41;;;;;;;6.13;4.07;;;;;;;15.43;100.00;96804.16;4980507;28;20046;-62
2023/08/27 06:04:09;;;;;;;7.78;4.43;;;;;;;15.49;100.00;96832.16;4967934;28;20654;-62
2023/08/27 06:06:37;;;;;;;7.85;4.53;;;;;;;15.52;100.00;96825.28;4964459;28;20156;-62
2023/08/27 06:09:04;;;;;;;8.27;4.88;;;;;;;15.53;100.00;96810.53;4970229;28;20537;-62
2023/08/27 06:11:30;;;;;;;7.30;4.50;;;;;;;15.44;100.00;96799.50;4973796;28;20038;-62
2023/08/27 06:13:57;;;;;;;9.05;4.63;;;;;;;15.50;100.00;96820.13;4973403;28;20122;-62
2023/08/27 06:16:24;;;;;;;10.63;5.47;;;;;;;15.57;100.00;96819.75;4963086;28;21610;-62
2023/08/27 06:18:50;;;;;;;8.57;4.57;;;;;;;15.57;100.00;96800.66;4973649;28;20038;-62
2023/08/27 06:21:17;;;;;;;6.38;4.40;;;;;;;15.59;100.00;96787.53;4994995;28;20418;-62
2023/08/27 06:23:43;;;;;;;5.85;4.25;;;;;;;15.56;100.00;96752.66;4974189;28;20042;-63
2023/08/27 06:26:11;;;;;;;6.03;3.70;;;;;;;15.60;100.00;96754.47;4969225;28;20043;-62
2023/08/27 06:28:37;;;;;;;6.93;4.15;;;;;;;15.52;100.00;96760.59;4992197;28;20506;-62
2023/08/27 06:31:04;;;;;;;6.82;3.88;;;;;;;15.52;100.00;96755.16;4965325;28;20050;-62
2023/08/27 06:33:31;;;;;;;7.93;3.65;;;;;;;15.59;100.00;96762.97;4979566;28;20057;-62
2023/08/27 06:35:57;;;;;;;8.57;3.92;;;;;;;15.66;100.00;96759.84;4966392;28;20050;-62
2023/08/27 06:38:24;;;;;;;5.95;4.05;;;;;;;15.69;100.00;96770.97;4981505;28;21650;-63
2023/08/27 06:40:51;;;;;;;8.65;4.03;;;;;;;15.69;100.00;96770.97;4968118;28;20097;-62
2023/08/27 06:43:18;;;;;;;7.07;4.35;;;;;;;15.58;100.00;96794.91;4983565;28;20044;-53
2023/08/27 06:45:46;;;;;;;6.55;4.22;;;;;;;15.57;100.00;96806.09;4987921;28;20055;-50
2023/08/27 06:48:12;;;;;;;7.53;4.20;;;;;;;15.54;100.00;96801.25;4960571;28;20047;-51
2023/08/27 06:50:39;;;;;;;8.73;4.25;;;;;;;15.60;100.00;96819.97;4977933;28;20510;-54
2023/08/27 06:53:06;;;;;;;9.90;4.88;;;;;;;15.57;100.00;96806.94;4983491;28;20477;-51
2023/08/27 06:55:33;;;;;;;9.35;4.75;;;;;;;15.59;100.00;96823.00;4996556;28;20050;-50
2023/08/27 06:57:59;;;;;;;6.60;4.53;;;;;;;15.62;100.00;96808.75;4962330;28;20091;-49
2023/08/27 07:00:27;;;;;;;7.53;4.20;;;;;;;15.74;100.00;96795.44;4985676;28;20628;-60
2023/08/27 07:02:57;;;;;;;7.40;3.97;;;;;;;15.89;100.00;96784.56;4978468;28;20047;-60
2023/08/27 07:05:24;;;;;;;6.80;4.00;;;;;;;15.96;100.00;96771.34;4991678;28;20138;-60
2023/08/27 07:07:50;;;;;;;9.77;4.88;;;;;;;16.06;100.00;96765.69;4967679;28;20043;-60
2023/08/27 07:10:17;;;;;;;6.85;4.57;;;;;;;16.17;100.00;96758.09;4992486;28;20107;-60
2023/08/27 07:12:44;;;;;;;8.93;4.25;;;;;;;16.32;100.00;96750.69;4973069;28;20035;-61
2023/08/27 07:15:13;;;;;;;7.90;4.70;;;;;;;16.28;100.00;96730.59;4992194;28;20468;-60
2023/08/27 07:17:41;;;;;;;6.50;4.15;;;;;;;16.32;100.00;96720.66;4966783;28;20050;-60
2023/08/27 07:20:09;;;;;;;6.80;4.20;;;;;;;16.28;100.00;96716.94;5024237;28;20040;-60
2023/08/27 07:22:35;;;;;;;6.60;4.28;;;;;;;16.28;100.00;96720.47;4967670;28;20052;-61
2023/08/27 07:25:04;;;;;;;6.57;3.88;;;;;;;16.44;100.00;96709.22;5020519;28;20044;-61
2023/08/27 07:27:32;;;;;;;6.70;3.95;;;;;;;16.48;100.00;96702.81;5007427;28;20074;-61
2023/08/27 07:29:58;;;;;;;6.22;3.60;;;;;;;16.49;100.00;96712.66;4991643;28;20553;-61
2023/08/27 07:32:25;;;;;;;8.85;3.50;;;;;;;16.49;100.00;96720.03;4974214;28;20488;-60
2023/08/27 07:34:52;;;;;;;5.65;3.03;;;;;;;16.70;100.00;96711.38;4986863;28;20049;-61
2023/08/27 07:37:21;;;;;;;7.55;3.22;;;;;;;16.81;100.00;96715.47;4970067;28;20061;-60
2023/08/27 07:39:48;;;;;;;8.10;3.97;;;;;;;16.55;100.00;96721.50;4983305;28;20057;-60
2023/08/27 07:42:15;;;;;;;7.47;3.30;;;;;;;16.69;100.00;96728.91;4966432;28;20586;-60
2023/08/27 07:44:41;;;;;;;7.68;2.83;;;;;;;16.73;100.00;96744.34;4979371;28;20038;-60
2023/08/27 07:47:08;;;;;;;5.57;2.97;;;;;;;16.86;100.00;96748.19;4970921;28;20047;-60
2023/08/27 07:49:35;;;;;;;5.93;3.05;;;;;;;16.83;100.00;96757.00;4980694;28;20042;-60
2023/08/27 07:52:02;;;;;;;6.32;3.05;;;;;;;16.75;100.00;96757.72;4961847;28;20078;-60
2023/08/27 07:54:29;;;;;;;5.75;3.60;;;;;;;16.73;100.00;96760.75;4987588;28;20042;-60
2023/08/27 07:56:57;;;;;;;7.30;3.30;;;;;;;16.77;100.00;96778.16;4998344;28;20109;-59
2023/08/27 07:59:23;;;;;;;6.35;3.10;;;;;;;16.80;100.00;96767.75;4998004;28;20051;-61
2023/08/27 08:01:51;;;;;;;5.55;3.20;;;;;;;16.88;100.00;96775.22;4966522;28;20051;-61
2023/08/27 08:04:17;;;;;;;5.07;3.00;;;;;;;16.77;100.00;96772.69;4974924;28;20534;-60
2023/08/27 08:06:44;;;;;;;4.75;3.10;;;;;;;16.77;100.00;96791.03;4970179;28;20699;-60
2023/08/27 08:09:10;;;;;;;6.93;3.25;;;;;;;16.80;100.00;96803.28;4993876;28;20537;-61
2023/08/27 08:11:37;;;;;;;5.60;3.00;;;;;;;16.81;100.00;96804.91;4970230;28;20047;-60
2023/08/27 08:14:04;;;;;;;5.55;2.60;;;;;;;16.95;100.00;96796.66;4972979;28;20063;-61
2023/08/27 08:16:30;;;;;;;5.75;2.25;;;;;;;17.18;100.00;96797.53;4973374;28;20464;-60
2023/08/27 08:18:57;;;;;;;4.72;2.55;;;;;;;17.31;100.00;96797.81;4976939;28;20050;-60
2023/08/27 08:21:24;;;;;;;4.80;2.63;;;;;;;17.36;100.00;96798.47;4967329;28;20105;-61
2023/08/27 08:23:50;;;;;;;5.22;2.45;;;;;;;17.40;100.00;96793.97;4963307;28;20509;-61
2023/08/27 08:26:17;;;;;;;4.45;1.90;;;;;;;17.54;100.00;96793.94;4968320;28;20078;-61
2023/08/27 08:28:44;;;;;;;4.50;2.40;;;;;;;17.61;100.00;96798.16;5004999;28;20037;-60
2023/08/27 08:31:10;;;;;;;5.07;2.35;;;;;;;17.56;100.00;96801.81;4994605;28;20134;-60
2023/08/27 08:33:37;;;;;;;3.47;2.10;;;;;;;17.56;100.00;96801.81;4971494;28;20034;-59
2023/08/27 08:36:04;;;;;;;4.97;2.67;;;;;;;17.73;100.00;96795.63;4978293;28;20126;-60
2023/08/27 08:38:33;;;;;;;5.43;2.50;;;;;;;17.78;100.00;96781.03;4998333;28;20088;-60
2023/08/27 08:41:02;;;;;;;4.22;2.20;;;;;;;17.91;100.00;96773.84;4995812;28;20060;-60
2023/08/27 08:43:51;;;;;;;5.45;2.20;;;;;;;17.98;100.00;96771.44;4972194;28;20117;-60
2023/08/27 08:46:20;;;;;;;6.25;2.72;;;;;;;17.95;100.00;96772.09;4976259;28;20125;-60
2023/08/27 08:48:52;;;;;;;3.35;2.03;;;;;;;17.84;100.00;96787.19;4972705;28;20093;-61
2023/08/27 08:51:24;;;;;;;5.97;2.40;;;;;;;17.87;100.00;96792.81;5006616;28;20105;-60
2023/08/27 08:53:54;;;;;;;4.25;2.33;;;;;;;17.52;100.00;96798.09;4965922;28;20047;-60
2023/08/27 08:56:24;;;;;;;4.65;2.10;;;;;;;17.59;100.00;96793.00;4976042;28;20055;-61
2023/08/27 08:58:53;;;;;;;4.28;2.20;;;;;;;17.69;100.00;96800.13;4972081;28;20039;-61
2023/08/27 09:01:21;;;;;;;4.00;2.13;;;;;;;17.66;100.00;96796.09;4971564;28;20149;-60
2023/08/27 09:03:49;;;;;;;5.55;2.60;;;;;;;17.71;100.00;96802.56;4975938;28;20039;-61
2023/08/27 09:06:18;;;;;;;5.50;2.13;;;;;;;17.51;100.00;96786.34;4973212;28;20062;-60
2023/08/27 09:08:45;;;;;;;5.47;2.58;;;;;;;17.64;100.00;96789.31;4971572;28;20044;-60
2023/08/27 09:11:12;;;;;;;4.80;2.38;;;;;;;17.83;100.00;96788.31;4971355;28;20042;-61
2023/08/27 09:13:39;;;;;;;6.30;2.55;;;;;;;17.99;100.00;96775.78;4969903;28;20066;-61
2023/08/27 09:16:06;;;;;;;6.60;2.30;;;;;;;18.20;100.00;96767.88;4975721;28;20051;-60
2023/08/27 09:18:36;;;;;;;5.55;2.53;;;;;;;18.32;100.00;96761.78;4974748;28;20049;-61
2023/08/27 09:21:03;;;;;;;4.55;2.25;;;;;;;18.49;100.00;96748.44;4981284;28;20035;-60
2023/08/27 09:23:30;;;;;;;5.38;2.00;;;;;;;18.62;100.00;96743.94;4967151;28;20116;-61
2023/08/27 09:26:01;;;;;;;3.58;1.88;;;;;;;18.70;100.00;96738.50;5011968;28;20130;-60
2023/08/27 09:28:28;;;;;;;6.40;2.80;;;;;;;18.78;100.00;96736.88;4968198;28;20619;-60
2023/08/27 09:30:54;;;;;;;5.10;1.92;;;;;;;18.60;98.59;96741.53;4996663;28;20297;-60
2023/08/27 09:33:36;;;;;;;3.55;2.00;;;;;;;18.73;100.00;96750.75;4964688;28;20100;-60
2023/08/27 09:36:02;;;;;;;;;;;;;;;18.69;100.00;96742.34;4987669;28;20143;-60
2023/08/27 09:38:30;;;;;;;5.25;2.50;;;;;;;18.88;100.00;96748.66;4972338;28;20012;-61
2023/08/27 09:41:12;;;;;;;3.70;1.85;;;;;;;18.97;98.15;96753.00;5017951;28;20046;-60
2023/08/27 09:43:39;;;;;;;4.53;1.90;;;;;;;18.80;95.74;96751.06;4966151;28;20080;-61
2023/08/27 09:46:12;;;;;;;7.45;2.70;;;;;;;19.07;98.31;96756.59;4999190;28;20044;-60
2023/08/27 09:48:39;;;;;;;4.93;2.10;;;;;;;19.27;98.43;96751.59;4973095;28;20096;-59
2023/08/27 09:51:06;;;;;;;4.13;2.08;;;;;;;19.18;97.95;96752.41;4999667;28;20047;-60
2023/08/27 09:53:33;;;;;;;5.05;2.60;;;;;;;19.48;98.12;96759.94;4966922;28;20129;-60
2023/08/27 09:56:02;;;;;;;8.55;2.53;;;;;;;19.57;97.28;96757.19;4990652;28;20050;-60
2023/08/27 09:58:29;;;;;;;4.63;2.47;;;;;;;19.56;97.44;96755.56;4972313;28;20042;-60
2023/08/27 10:01:00;;;;;;;4.07;1.85;;;;;;;19.68;96.16;96757.66;4988185;28;20050;-61
2023/08/27 10:03:30;;;;;;;4.75;2.00;;;;;;;19.56;96.53;96750.88;4968267;28;20050;-60
2023/08/27 10:05:56;;;;;;;6.95;2.88;;;;;;;19.67;94.73;96739.53;4976923;28;20039;-60
2023/08/27 10:08:23;;;;;;;4.38;2.17;;;;;;;19.66;95.29;96743.44;4973680;28;20475;-59
2023/08/27 10:10:50;;;;;;;6.00;2.20;;;;;;;19.58;95.03;96742.31;4992816;28;20039;-60
2023/08/27 10:13:20;;;;;;;5.50;2.05;;;;;;;19.58;96.23;96736.84;4981695;28;20129;-60
2023/08/27 10:15:48;;;;;;;5.20;2.20;;;;;;;19.79;97.32;96741.63;4977368;28;20053;-60
2023/08/27 10:18:15;;;;;;;7.07;2.70;;;;;;;19.98;94.09;96757.72;4964842;28;20498;-60
2023/08/27 10:20:42;;;;;;;5.28;2.30;;;;;;;19.95;96.97;96747.38;4994198;28;20046;-61
2023/08/27 10:23:15;;;;;;;4.55;2.55;;;;;;;19.95;97.38;96739.13;4964991;28;20109;-60
2023/08/27 10:25:43;;;;;;;6.55;2.85;;;;;;;20.00;96.59;96728.00;4976352;28;20053;-60
2023/08/27 10:28:11;;;;;;;4.00;2.15;;;;;;;20.09;95.93;96734.25;4968476;28;20116;-60
2023/08/27 10:30:38;;;;;;;5.03;2.03;;;;;;;20.16;95.64;96735.69;4998267;28;20042;-59
2023/08/27 10:33:04;;;;;;;4.18;2.35;;;;;;;20.16;90.55;96736.47;4982528;28;20488;-60
2023/08/27 10:35:38;;;;;;;5.75;2.15;;;;;;;20.22;88.98;96737.91;4977730;28;20054;-60
2023/08/27 10:38:08;;;;;;;4.03;2.20;;;;;;;20.48;88.48;96730.66;4968393;28;20065;-60
2023/08/27 10:40:36;;;;;;;5.82;2.53;;;;;;;20.33;91.02;96738.34;4988656;28;20051;-61
2023/08/27 10:43:07;;;;;;;4.82;2.25;;;;;;;20.45;85.21;96731.34;4970855;28;20050;-61
2023/08/27 10:45:40;;;;;;;;;;;;;;;20.41;88.11;96731.19;4967534;28;20121;-60
2023/08/27 10:48:24;;;;;;;3.63;1.83;;;;;;;20.61;86.74;96731.56;4981600;28;19933;-61
2023/08/27 10:51:08;;;;;;;5.30;2.05;;;;;;;20.24;85.37;96734.84;4987390;28;20070;-61
2023/08/27 10:53:50;;;;;;;5.45;1.90;;;;;;;20.09;86.15;96722.47;4964031;28;20050;-61
2023/08/27 10:56:38;;;;;;;5.82;2.63;;;;;;;20.23;89.10;96734.03;4975673;28;20050;-60
2023/08/27 10:59:09;;;;;;;4.80;2.25;;;;;;;20.16;89.47;96732.94;4971117;28;20116;-61
2023/08/27 11:01:38;;;;;;;5.10;2.15;;;;;;;20.09;87.50;96731.50;4997822;28;20129;-60
2023/08/27 11:04:06;;;;;;;4.82;2.45;;;;;;;20.22;90.93;96726.09;4968277;28;20058;-61
2023/08/27 11:06:37;;;;;;;4.88;2.15;;;;;;;20.26;89.93;96733.38;4971903;28;20409;-60
2023/08/27 11:09:14;;;;;;;4.47;1.97;;;;;;;20.21;86.91;96733.56;5007993;28;20048;-60
2023/08/27 11:11:54;;;;;;;4.88;2.10;;;;;;;19.57;88.76;96740.72;4979750;28;20058;-61
2023/08/27 11:14:24;;;;;;;6.00;2.47;;;;;;;19.66;92.51;96741.50;4972703;28;20069;-60
2023/08/27 11:17:09;;;;;;;4.20;2.10;;;;;;;19.69;91.90;96738.09;4978701;28;20054;-61
2023/08/27 11:19:37;;;;;;;4.10;1.88;;;;;;;20.08;88.13;96740.09;5004895;28;20042;-60
2023/08/27 11:22:05;;;;;;;3.50;2.13;;;;;;;20.23;83.68;96741.47;4972404;28;20053;-60
2023/08/27 11:24:32;;;;;;;5.47;1.98;;;;;;;20.37;84.08;96736.53;4979320;28;20043;-61
2023/08/27 11:27:02;;;;;;;4.00;1.70;;;;;;;20.48;79.99;96734.22;4999731;28;20509;-60